Time;durP1;ratioP1;P1;durP2;ratioP2;P2;SDS_P1;SDS_P2;PMS_P1;PMS_P2;Temp;Humidity;BMP_temperature;BMP_pressure;BME280_temperature;BME280_humidity;BME280_pressure;Samples;Min_cycle;Max_cycle;Signal;HPM_P1;HPM_P2
2023/12/24 00:00:13;;;;;;;7.22;3.58;;;;;;;10.63;74.70;100790.72;5081833;28;20081;-65
2023/12/24 00:02:38;;;;;;;7.40;3.53;;;;;;;10.62;74.87;100789.88;5089460;28;20032;-65
2023/12/24 00:05:04;;;;;;;7.53;3.70;;;;;;;10.64;75.19;100801.53;5084659;28;20335;-66
2023/12/24 00:07:29;;;;;;;6.72;3.20;;;;;;;10.60;74.79;100785.66;5072951;28;20028;-66
2023/12/24 00:09:54;;;;;;;6.25;2.90;;;;;;;10.59;74.95;100784.00;5078789;28;20033;-66
2023/12/24 00:12:19;;;;;;;8.13;3.33;;;;;;;10.61;74.78;100790.09;5080378;28;20540;-66
2023/12/24 00:14:45;;;;;;;6.57;2.90;;;;;;;10.61;74.86;100790.97;5076018;28;20516;-66
2023/12/24 00:17:11;;;;;;;7.70;3.22;;;;;;;10.61;74.52;100799.31;5079123;28;20032;-66
2023/12/24 00:19:37;;;;;;;9.85;3.50;;;;;;;10.60;74.35;100813.41;5092854;28;20036;-66
2023/12/24 00:22:05;;;;;;;8.32;3.25;;;;;;;10.62;73.73;100814.84;5091479;28;20478;-66
2023/12/24 00:24:30;;;;;;;8.20;2.85;;;;;;;10.56;73.49;100811.13;5085130;28;20107;-66
2023/12/24 00:26:55;;;;;;;5.70;3.05;;;;;;;10.55;73.38;100803.09;5090470;28;20107;-66
2023/12/24 00:29:20;;;;;;;7.57;3.13;;;;;;;10.54;73.27;100807.81;5077720;28;20047;-66
2023/12/24 00:31:46;;;;;;;11.05;3.20;;;;;;;10.55;73.25;100800.31;5091746;28;20126;-66
2023/12/24 00:34:14;;;;;;;6.00;3.35;;;;;;;10.56;73.08;100793.66;5078307;28;20039;-66
2023/12/24 00:36:39;;;;;;;5.70;2.78;;;;;;;10.55;72.45;100790.03;5090566;28;20028;-66
2023/12/24 00:39:04;;;;;;;4.63;2.70;;;;;;;10.56;72.50;100775.06;5091557;28;20367;-66
2023/12/24 00:41:32;;;;;;;3.70;2.33;;;;;;;10.55;72.65;100775.31;5072118;28;20055;-66
2023/12/24 00:43:58;;;;;;;5.50;2.25;;;;;;;10.59;72.29;100761.78;5072829;28;20028;-66
2023/12/24 00:46:23;;;;;;;3.50;2.10;;;;;;;10.59;72.19;100757.06;5085757;28;20047;-66
2023/12/24 00:48:48;;;;;;;6.03;2.05;;;;;;;10.57;72.29;100737.91;5078822;28;20032;-66
2023/12/24 00:51:13;;;;;;;4.50;2.05;;;;;;;10.62;71.97;100739.91;5089588;28;20057;-66
2023/12/24 00:53:39;;;;;;;4.80;2.00;;;;;;;10.62;72.09;100726.03;5079286;28;20073;-66
2023/12/24 00:56:07;;;;;;;7.45;1.90;;;;;;;10.64;71.72;100709.13;5089435;28;20052;-66
2023/12/24 00:58:32;;;;;;;6.63;2.25;;;;;;;10.57;71.42;100710.16;5088513;28;20032;-66
2023/12/24 01:00:58;;;;;;;7.78;2.00;;;;;;;10.58;71.83;100691.56;5075409;28;20027;-66
2023/12/24 01:03:23;;;;;;;4.57;1.90;;;;;;;10.54;71.83;100694.00;5078558;28;20032;-66
2023/12/24 01:05:48;;;;;;;4.43;1.95;;;;;;;10.51;71.64;100677.88;5090913;28;20028;-66
2023/12/24 01:08:14;;;;;;;5.45;1.90;;;;;;;10.50;71.61;100658.72;5090294;28;20040;-66
2023/12/24 01:10:39;;;;;;;3.88;1.45;;;;;;;10.49;72.09;100646.78;5087602;28;20493;-66
2023/12/24 01:13:07;;;;;;;6.50;2.08;;;;;;;10.50;71.82;100651.22;5089231;28;20081;-66
2023/12/24 01:15:32;;;;;;;5.25;1.77;;;;;;;10.48;72.00;100652.56;5090973;28;20024;-66
2023/12/24 01:17:58;;;;;;;6.78;2.05;;;;;;;10.53;72.55;100653.50;5079616;28;20035;-66
2023/12/24 01:20:23;;;;;;;3.30;1.52;;;;;;;10.56;71.97;100644.63;5084785;28;20021;-66
2023/12/24 01:22:48;;;;;;;8.57;2.15;;;;;;;10.55;72.07;100650.44;5084633;28;20039;-66
2023/12/24 01:25:14;;;;;;;7.00;2.00;;;;;;;10.58;71.99;100647.16;5090120;28;20024;-66
2023/12/24 01:27:39;;;;;;;7.93;1.98;;;;;;;10.60;72.08;100641.34;5085654;28;20495;-66
2023/12/24 01:30:08;;;;;;;7.90;2.10;;;;;;;10.60;72.17;100658.81;5087638;28;20024;-66
2023/12/24 01:32:33;;;;;;;6.50;1.98;;;;;;;10.62;72.32;100661.38;5091535;28;20459;-66
2023/12/24 01:35:01;;;;;;;5.28;2.00;;;;;;;10.62;72.55;100655.81;5089846;28;20043;-66
2023/12/24 01:37:27;;;;;;;9.50;2.17;;;;;;;10.61;72.74;100654.97;5077430;28;20077;-66
2023/12/24 01:39:52;;;;;;;7.30;2.05;;;;;;;10.60;72.80;100663.53;5078093;28;20111;-66
2023/12/24 01:42:17;;;;;;;7.43;2.10;;;;;;;10.61;72.81;100659.66;5088740;28;20368;-67
2023/12/24 01:44:43;;;;;;;6.20;1.92;;;;;;;10.63;73.28;100658.31;5083818;28;20036;-66
2023/12/24 01:47:08;;;;;;;7.60;1.90;;;;;;;10.62;73.20;100662.19;5081711;28;20020;-66
2023/12/24 01:49:35;;;;;;;5.05;1.70;;;;;;;10.62;73.41;100667.75;5087219;28;20363;-66
2023/12/24 01:52:01;;;;;;;8.02;2.35;;;;;;;10.62;73.87;100678.00;5086049;28;20044;-65
2023/12/24 01:54:27;;;;;;;3.22;1.85;;;;;;;10.66;74.19;100673.63;5085618;28;20130;-65
2023/12/24 01:56:56;;;;;;;7.32;2.08;;;;;;;10.65;74.59;100669.16;5089201;28;20112;-65
2023/12/24 01:59:21;;;;;;;7.82;2.10;;;;;;;10.70;74.79;100672.84;5076667;28;20114;-65
2023/12/24 02:01:47;;;;;;;4.82;1.80;;;;;;;10.69;74.78;100670.31;5078583;28;20064;-65
2023/12/24 02:04:15;;;;;;;7.30;2.13;;;;;;;10.67;75.48;100673.34;5088304;28;20386;-66
2023/12/24 02:06:40;;;;;;;4.43;1.92;;;;;;;10.69;75.62;100675.84;5090236;28;20109;-65
2023/12/24 02:09:05;;;;;;;6.68;2.25;;;;;;;10.70;75.56;100669.22;5070744;28;20072;-65
2023/12/24 02:11:30;;;;;;;5.97;2.20;;;;;;;10.69;76.38;100657.28;5078702;28;20054;-65
2023/12/24 02:13:56;;;;;;;6.20;2.00;;;;;;;10.70;76.69;100663.69;5074717;28;20233;-65
2023/12/24 02:16:23;;;;;;;5.22;2.17;;;;;;;10.67;77.38;100667.81;5074267;28;20024;-65
2023/12/24 02:18:49;;;;;;;7.53;2.45;;;;;;;10.68;77.21;100660.31;5086728;28;20115;-65
2023/12/24 02:21:14;;;;;;;9.05;2.10;;;;;;;10.69;77.90;100667.53;5083214;28;20107;-65
2023/12/24 02:23:40;;;;;;;5.75;1.80;;;;;;;10.66;78.55;100654.19;5094490;28;20036;-65
2023/12/24 02:26:30;;;;;;;7.07;2.20;;;;;;;10.70;77.99;100658.13;5094998;28;20364;-65
2023/12/24 02:29:10;;;;;;;6.13;2.05;;;;;;;10.67;79.21;100644.75;5094775;28;20043;-65
2023/12/24 02:31:37;;;;;;;5.35;2.20;;;;;;;10.66;79.66;100652.25;5086767;28;20031;-65
2023/12/24 02:34:04;;;;;;;9.32;2.22;;;;;;;10.55;80.72;100642.13;5094215;28;20038;-65
2023/12/24 02:36:32;;;;;;;4.88;1.80;;;;;;;10.59;80.89;100636.91;5093934;28;20043;-65
2023/12/24 02:38:57;;;;;;;4.63;1.70;;;;;;;10.59;80.87;100618.31;5094806;28;20031;-65
2023/12/24 02:41:22;;;;;;;5.38;1.92;;;;;;;10.59;82.08;100617.47;5094471;28;20111;-65
2023/12/24 02:43:48;;;;;;;4.55;2.17;;;;;;;10.61;81.42;100623.56;5093969;28;20031;-65
2023/12/24 02:46:13;;;;;;;4.70;2.28;;;;;;;10.57;82.28;100615.78;5093531;28;20032;-65
2023/12/24 02:48:38;;;;;;;3.75;2.03;;;;;;;10.53;82.80;100613.78;5090363;28;20072;-65
2023/12/24 02:51:04;;;;;;;4.07;2.28;;;;;;;10.55;82.84;100615.19;5077526;28;20021;-64
2023/12/24 02:53:29;;;;;;;8.00;2.58;;;;;;;10.55;83.38;100600.50;5087315;28;20502;-65
2023/12/24 02:55:54;;;;;;;5.85;2.08;;;;;;;10.55;83.29;100600.50;5094535;28;20020;-65
2023/12/24 02:58:20;;;;;;;4.90;2.20;;;;;;;10.56;83.28;100597.44;5088981;28;20495;-65
2023/12/24 03:00:48;;;;;;;5.30;1.90;;;;;;;10.60;83.46;100602.47;5091381;28;20048;-65
2023/12/24 03:03:13;;;;;;;6.57;2.38;;;;;;;10.57;83.85;100606.59;5083031;28;20386;-65
2023/12/24 03:05:38;;;;;;;4.93;2.08;;;;;;;10.60;83.69;100596.94;5090281;28;20107;-65
2023/12/24 03:08:04;;;;;;;5.47;2.55;;;;;;;10.61;84.02;100601.38;5093360;28;20032;-65
2023/12/24 03:10:29;;;;;;;5.85;2.70;;;;;;;10.61;84.00;100598.59;5073948;28;20487;-65
2023/12/24 03:12:54;;;;;;;5.18;2.40;;;;;;;10.63;83.93;100604.75;5076651;28;20035;-65
2023/12/24 03:15:22;;;;;;;3.17;2.30;;;;;;;10.61;84.27;100599.47;5084508;28;20032;-65
2023/12/24 03:17:48;;;;;;;4.90;1.92;;;;;;;10.60;84.55;100591.38;5080459;28;20028;-65
2023/12/24 03:20:13;;;;;;;3.42;1.88;;;;;;;10.62;84.39;100586.41;5087774;28;20100;-65
2023/12/24 03:22:38;;;;;;;4.53;1.80;;;;;;;10.62;84.57;100575.31;5081998;28;20024;-65
2023/12/24 03:25:04;;;;;;;3.28;1.60;;;;;;;10.59;84.99;100573.91;5092923;28;20036;-65
2023/12/24 03:27:29;;;;;;;2.70;1.55;;;;;;;10.59;84.89;100559.19;5092844;28;20127;-64
2023/12/24 03:29:54;;;;;;;4.53;1.55;;;;;;;10.59;85.13;100556.41;5093590;28;20031;-65
2023/12/24 03:32:22;;;;;;;2.35;1.20;;;;;;;10.58;85.48;100555.56;5093596;28;20467;-65
2023/12/24 03:34:47;;;;;;;2.55;1.23;;;;;;;10.57;85.79;100556.66;5091700;28;20181;-65
2023/12/24 03:37:13;;;;;;;2.13;1.38;;;;;;;10.57;85.80;100549.19;5093646;28;20491;-65
2023/12/24 03:39:38;;;;;;;3.22;1.27;;;;;;;10.53;86.29;100536.94;5090351;28;20056;-65
2023/12/24 03:42:03;;;;;;;2.33;1.00;;;;;;;10.53;86.17;100545.25;5082228;28;20118;-65
2023/12/24 03:44:29;;;;;;;2.88;1.20;;;;;;;10.49;86.79;100540.47;5093589;28;20035;-65
2023/12/24 03:46:54;;;;;;;1.33;0.90;;;;;;;10.49;86.76;100546.88;5092560;28;20986;-65
2023/12/24 03:49:20;;;;;;;2.15;0.85;;;;;;;10.52;86.79;100543.56;5092353;28;20036;-65
2023/12/24 03:51:47;;;;;;;0.80;0.80;;;;;;;10.49;87.13;100533.00;5093514;28;20044;-65
2023/12/24 03:54:12;;;;;;;1.25;0.73;;;;;;;10.52;87.27;100531.63;5092677;28;20102;-64
2023/12/24 03:56:38;;;;;;;1.15;0.70;;;;;;;10.51;87.33;100516.91;5093477;28;20058;-64
2023/12/24 03:59:06;;;;;;;1.17;0.63;;;;;;;10.55;87.24;100512.53;5084423;28;20469;-64
2023/12/24 04:01:31;;;;;;;1.23;0.60;;;;;;;10.55;87.24;100540.28;5084688;28;20031;-64
2023/12/24 04:03:56;;;;;;;0.57;0.57;;;;;;;10.56;87.58;100530.00;5079895;28;20032;-64
2023/12/24 04:06:21;;;;;;;0.50;0.50;;;;;;;10.57;87.41;100538.09;5086884;28;20043;-64
2023/12/24 04:08:47;;;;;;;0.73;0.57;;;;;;;10.56;87.56;100535.56;5092407;28;20109;-64
2023/12/24 04:11:13;;;;;;;0.70;0.50;;;;;;;10.53;87.95;100525.84;5091776;28;20035;-64
2023/12/24 04:13:39;;;;;;;1.17;0.60;;;;;;;10.56;87.68;100528.06;5072440;28;20115;-64
2023/12/24 04:16:08;;;;;;;1.48;0.70;;;;;;;10.60;87.60;100524.78;5071770;28;20112;-64
2023/12/24 04:18:34;;;;;;;0.50;0.50;;;;;;;10.58;88.04;100522.28;5075698;28;20408;-64
2023/12/24 04:20:59;;;;;;;0.60;0.60;;;;;;;10.59;88.02;100518.38;5088655;28;20125;-64
2023/12/24 04:23:24;;;;;;;0.60;0.60;;;;;;;10.61;88.15;100507.00;5091930;28;20020;-65
2023/12/24 04:25:50;;;;;;;0.60;0.60;;;;;;;10.59;88.17;100507.28;5092589;28;20027;-64
2023/12/24 04:28:15;;;;;;;1.55;0.60;;;;;;;10.63;87.92;100504.81;5092344;28;20044;-64
2023/12/24 04:30:41;;;;;;;1.40;0.77;;;;;;;10.60;88.41;100497.84;5091806;28;20036;-64
2023/12/24 04:33:06;;;;;;;0.50;0.50;;;;;;;10.66;88.15;100509.84;5086903;28;20033;-64
2023/12/24 04:35:31;;;;;;;0.60;0.60;;;;;;;10.63;88.47;100502.06;5073372;28;20034;-64
2023/12/24 04:37:56;;;;;;;0.50;0.50;;;;;;;10.60;88.82;100506.19;5080583;28;20028;-64
2023/12/24 04:40:22;;;;;;;0.50;0.50;;;;;;;10.62;88.68;100508.72;5092212;28;20034;-65
2023/12/24 04:42:47;;;;;;;0.60;0.60;;;;;;;10.63;88.63;100511.22;5092336;28;20111;-65
2023/12/24 04:45:13;;;;;;;0.85;0.60;;;;;;;10.63;88.82;100499.28;5091677;28;20352;-65
2023/12/24 04:47:38;;;;;;;0.65;0.60;;;;;;;10.63;88.98;100493.72;5091298;28;20035;-64
2023/12/24 04:50:05;;;;;;;1.23;0.60;;;;;;;10.65;88.77;100499.84;5091447;28;20019;-64
2023/12/24 04:52:35;;;;;;;0.50;0.50;;;;;;;10.65;88.99;100499.84;5075841;28;20452;-65
2023/12/24 04:55:02;;;;;;;0.60;0.60;;;;;;;10.67;88.64;100500.44;5083346;28;20773;-65
2023/12/24 04:57:27;;;;;;;0.60;0.60;;;;;;;10.62;89.27;100501.22;5091212;28;20055;-65
2023/12/24 04:59:53;;;;;;;0.70;0.70;;;;;;;10.62;89.31;100505.94;5091612;28;20059;-65
2023/12/24 05:02:18;;;;;;;0.50;0.50;;;;;;;10.61;89.30;100504.25;5079710;28;20035;-65
2023/12/24 05:04:43;;;;;;;0.57;0.52;;;;;;;10.62;89.94;100494.84;5089863;28;20130;-65
2023/12/24 05:07:09;;;;;;;0.57;0.57;;;;;;;10.63;89.42;100486.22;5090264;28;20024;-65
2023/12/24 05:09:34;;;;;;;0.60;0.60;;;;;;;10.62;89.64;100494.84;5085141;28;20466;-65
2023/12/24 05:11:59;;;;;;;1.20;0.60;;;;;;;10.66;89.47;100494.03;5072032;28;20028;-65
2023/12/24 05:14:25;;;;;;;0.60;0.60;;;;;;;10.65;89.56;100488.72;5074008;28;20032;-65
2023/12/24 05:16:50;;;;;;;0.57;0.57;;;;;;;10.67;89.47;100497.66;5078155;28;20051;-65
2023/12/24 05:19:18;;;;;;;0.50;0.50;;;;;;;10.69;89.82;100495.44;5090941;28;20020;-64
2023/12/24 05:21:43;;;;;;;0.60;0.60;;;;;;;10.68;89.80;100502.94;5085860;28;20486;-65
2023/12/24 05:24:09;;;;;;;0.60;0.60;;;;;;;10.71;89.86;100496.03;5078526;28;20032;-65
2023/12/24 05:26:36;;;;;;;0.98;0.50;;;;;;;10.71;89.80;100498.81;5080997;28;20108;-65
2023/12/24 05:29:02;;;;;;;0.60;0.60;;;;;;;10.71;89.85;100498.81;5084781;28;20093;-65
2023/12/24 05:31:27;;;;;;;0.60;0.60;;;;;;;10.71;90.06;100490.47;5090033;28;20036;-64
2023/12/24 05:33:53;;;;;;;0.50;0.50;;;;;;;10.74;89.64;100496.34;5087500;28;20039;-65
2023/12/24 05:36:18;;;;;;;0.60;0.60;;;;;;;10.74;89.65;100498.28;5091432;28;20092;-65
2023/12/24 05:38:43;;;;;;;0.57;0.57;;;;;;;10.69;90.45;100484.34;5091568;28;20024;-65
2023/12/24 05:41:10;;;;;;;0.60;0.60;;;;;;;10.68;90.19;100488.22;5090698;28;20410;-65
2023/12/24 05:43:36;;;;;;;0.73;0.60;;;;;;;10.68;90.46;100479.88;5090982;28;20024;-65
2023/12/24 05:46:01;;;;;;;0.60;0.60;;;;;;;10.69;90.52;100473.22;5083224;28;20036;-65
2023/12/24 05:48:27;;;;;;;0.55;0.50;;;;;;;10.71;90.46;100479.38;5083702;28;20375;-65
2023/12/24 05:50:55;;;;;;;0.70;0.70;;;;;;;10.70;90.32;100486.88;5088758;28;20414;-65
2023/12/24 05:53:20;;;;;;;0.80;0.80;;;;;;;10.71;90.62;100484.91;5071901;28;20029;-65
2023/12/24 05:55:45;;;;;;;0.60;0.60;;;;;;;10.72;90.54;100489.38;5071413;28;20498;-65
2023/12/24 05:58:11;;;;;;;0.60;0.60;;;;;;;10.72;90.69;100483.81;5071169;28;20024;-66
2023/12/24 06:00:36;;;;;;;0.77;0.77;;;;;;;10.70;90.57;100474.94;5070529;28;20041;-65
2023/12/24 06:03:03;;;;;;;0.70;0.70;;;;;;;10.71;90.89;100471.03;5071146;28;20028;-65
2023/12/24 06:05:28;;;;;;;0.63;0.63;;;;;;;10.68;91.09;100479.88;5084229;28;20406;-65
2023/12/24 06:07:53;;;;;;;0.73;0.73;;;;;;;10.68;91.00;100488.22;5076020;28;20056;-65
2023/12/24 06:10:18;;;;;;;0.70;0.70;;;;;;;10.70;91.17;100486.03;5080139;28;20017;-64
2023/12/24 06:12:49;;;;;;;0.70;0.70;;;;;;;10.66;91.29;100485.72;5082346;28;20039;-64
2023/12/24 06:15:15;;;;;;;0.80;0.80;;;;;;;10.69;91.65;100487.97;5079445;28;20063;-64
2023/12/24 06:17:40;;;;;;;0.77;0.77;;;;;;;10.71;91.42;100487.69;5081692;28;20491;-64
2023/12/24 06:20:06;;;;;;;0.80;0.80;;;;;;;10.72;91.14;100472.72;5081793;28;20420;-64
2023/12/24 06:22:31;;;;;;;0.70;0.70;;;;;;;10.69;91.76;100471.31;5090290;28;20027;-64
2023/12/24 06:24:57;;;;;;;0.77;0.77;;;;;;;10.72;92.33;100475.47;5073131;28;20025;-64
2023/12/24 06:27:23;;;;;;;0.77;0.77;;;;;;;10.70;91.84;100469.38;5087496;28;20091;-64
2023/12/24 06:29:48;;;;;;;0.70;0.70;;;;;;;10.72;91.80;100456.06;5089214;28;20035;-64
2023/12/24 06:32:13;;;;;;;0.70;0.70;;;;;;;10.73;91.87;100464.13;5089364;28;20036;-64
2023/12/24 06:34:40;;;;;;;0.70;0.70;;;;;;;10.72;91.97;100462.44;5089459;28;20055;-64
2023/12/24 06:37:05;;;;;;;0.82;0.70;;;;;;;10.74;92.13;100456.66;5074105;28;20027;-64
2023/12/24 06:39:31;;;;;;;0.80;0.80;;;;;;;10.74;92.10;100448.31;5089455;28;20099;-58
2023/12/24 06:41:59;;;;;;;0.60;0.60;;;;;;;10.75;92.06;100447.22;5085545;28;20028;-61
2023/12/24 06:44:24;;;;;;;0.70;0.70;;;;;;;10.75;92.21;100455.53;5081937;28;20028;-64
2023/12/24 06:46:50;;;;;;;0.68;0.68;;;;;;;10.72;92.56;100450.50;5090625;28;20028;-65
2023/12/24 06:49:15;;;;;;;0.68;0.68;;;;;;;10.74;92.51;100459.41;5090119;28;20402;-64
2023/12/24 06:51:40;;;;;;;0.70;0.70;;;;;;;10.76;92.33;100457.19;5089522;28;20039;-64
2023/12/24 06:54:05;;;;;;;0.85;0.82;;;;;;;10.78;92.04;100449.47;5090681;28;20122;-65
2023/12/24 06:56:31;;;;;;;1.02;0.70;;;;;;;10.79;92.09;100453.91;5090253;28;20036;-65
2023/12/24 06:58:56;;;;;;;0.70;0.70;;;;;;;10.76;92.53;100446.09;5090058;28;20024;-65
2023/12/24 07:01:21;;;;;;;0.70;0.70;;;;;;;10.75;92.55;100442.47;5081604;28;20024;-65
2023/12/24 07:03:46;;;;;;;0.70;0.70;;;;;;;10.74;92.26;100429.72;5093919;28;20020;-65
2023/12/24 07:06:12;;;;;;;0.77;0.77;;;;;;;10.78;92.42;100443.91;5094294;28;20024;-65
2023/12/24 07:08:38;;;;;;;0.90;0.90;;;;;;;10.77;92.35;100429.19;5094448;28;20024;-65
2023/12/24 07:11:06;;;;;;;1.20;1.20;;;;;;;10.79;92.84;100435.31;5093457;28;20402;-65
2023/12/24 07:13:31;;;;;;;1.25;1.10;;;;;;;10.75;92.84;100436.94;5092061;28;20463;-65
2023/12/24 07:15:57;;;;;;;1.23;0.98;;;;;;;10.76;92.97;100433.03;5094233;28;20030;-65
2023/12/24 07:18:22;;;;;;;0.90;0.90;;;;;;;10.76;92.95;100438.59;5083621;28;20686;-65
2023/12/24 07:20:47;;;;;;;1.20;1.10;;;;;;;10.78;93.05;100453.06;5085456;28;20037;-64
2023/12/24 07:23:13;;;;;;;1.08;1.02;;;;;;;10.79;92.83;100434.47;5078404;28;20131;-65
2023/12/24 07:25:38;;;;;;;1.00;1.00;;;;;;;10.80;93.01;100441.69;5090426;28;20043;-64
2023/12/24 07:28:04;;;;;;;1.20;1.10;;;;;;;10.82;92.70;100439.50;5093372;28;20035;-64
2023/12/24 07:30:29;;;;;;;1.10;1.10;;;;;;;10.82;92.89;100439.50;5093818;28;20036;-64
2023/12/24 07:32:54;;;;;;;0.88;0.88;;;;;;;10.84;93.09;100448.38;5093094;28;20028;-64
2023/12/24 07:35:20;;;;;;;1.27;0.98;;;;;;;10.82;93.19;100453.38;5082153;28;20256;-64
2023/12/24 07:37:47;;;;;;;1.02;1.02;;;;;;;10.81;93.53;100448.94;5078117;28;20021;-65
2023/12/24 07:40:12;;;;;;;1.33;1.23;;;;;;;10.81;93.13;100454.50;5088874;28;20036;-64
2023/12/24 07:42:37;;;;;;;1.48;1.38;;;;;;;10.80;93.45;100458.34;5086885;28;20039;-65
2023/12/24 07:45:04;;;;;;;1.73;1.63;;;;;;;10.79;93.80;100456.69;5081762;28;20036;-64
2023/12/24 07:47:30;;;;;;;1.30;1.20;;;;;;;10.77;94.00;100454.19;5087148;28;20394;-65
2023/12/24 07:49:55;;;;;;;1.40;1.30;;;;;;;10.77;94.18;100458.91;5084228;28;20028;-63
2023/12/24 07:52:21;;;;;;;1.27;1.17;;;;;;;10.79;94.31;100465.84;5079782;28;20052;-65
2023/12/24 07:54:46;;;;;;;1.10;1.08;;;;;;;10.81;94.05;100455.31;5080628;28;20051;-64
2023/12/24 07:57:11;;;;;;;1.10;1.02;;;;;;;10.82;93.89;100453.38;5084396;28;20032;-63
2023/12/24 07:59:37;;;;;;;1.20;1.10;;;;;;;10.86;93.86;100448.97;5086853;28;20361;-63
2023/12/24 08:02:05;;;;;;;1.00;1.00;;;;;;;10.86;93.39;100443.41;5079926;28;20033;-63
2023/12/24 08:04:31;;;;;;;0.98;0.95;;;;;;;10.84;93.96;100440.06;5081800;28;20051;-62
2023/12/24 08:06:57;;;;;;;1.10;1.00;;;;;;;10.86;93.76;100446.19;5079180;28;20031;-62
2023/12/24 08:09:23;;;;;;;0.90;0.90;;;;;;;10.88;93.47;100443.97;5077312;28;20395;-63
2023/12/24 08:11:48;;;;;;;0.65;0.65;;;;;;;10.89;93.83;100436.50;5078424;28;20040;-63
2023/12/24 08:14:16;;;;;;;0.80;0.80;;;;;;;10.90;93.71;100447.34;5091911;28;20035;-62
2023/12/24 08:16:41;;;;;;;0.80;0.80;;;;;;;10.92;93.62;100444.28;5090988;28;20569;-62
2023/12/24 08:19:06;;;;;;;1.38;0.85;;;;;;;10.91;93.38;100448.16;5092711;28;20119;-62
2023/12/24 08:21:32;;;;;;;1.00;0.90;;;;;;;10.91;93.49;100451.78;5082964;28;20028;-62
2023/12/24 08:23:57;;;;;;;1.08;0.75;;;;;;;10.90;93.51;100446.50;5082780;28;20082;-63
2023/12/24 08:26:22;;;;;;;0.82;0.82;;;;;;;10.91;93.46;100448.16;5085243;28;20019;-62
2023/12/24 08:28:48;;;;;;;0.73;0.73;;;;;;;10.93;93.83;100445.97;5086535;28;20056;-62
2023/12/24 08:31:13;;;;;;;1.23;1.10;;;;;;;10.89;93.93;100431.78;5082666;28;20024;-62
2023/12/24 08:33:38;;;;;;;4.13;1.50;;;;;;;10.93;93.91;100451.53;5081183;28;20031;-62
2023/12/24 08:36:04;;;;;;;11.88;1.60;;;;;;;10.93;94.19;100441.25;5084874;28;20027;-62
2023/12/24 08:38:30;;;;;;;2.47;0.98;;;;;;;10.94;93.97;100428.22;5084598;28;20464;-62
2023/12/24 08:40:55;;;;;;;0.90;0.90;;;;;;;10.94;94.05;100434.59;5076722;28;20033;-63
2023/12/24 08:43:21;;;;;;;1.15;1.10;;;;;;;10.97;93.91;100436.00;5072683;28;20053;-63
2023/12/24 08:45:46;;;;;;;0.90;0.90;;;;;;;10.96;93.93;100432.38;5071783;28;20023;-65
2023/12/24 08:48:14;;;;;;;0.90;0.90;;;;;;;10.96;94.20;100435.16;5080465;28;20458;-63
2023/12/24 08:50:39;;;;;;;1.02;0.93;;;;;;;10.97;94.33;100441.56;5090321;28;20903;-64
2023/12/24 08:53:04;;;;;;;0.80;0.80;;;;;;;10.97;93.73;100441.56;5090073;28;20032;-63
2023/12/24 08:55:30;;;;;;;0.93;0.80;;;;;;;10.96;94.30;100439.88;5075055;28;20041;-63
2023/12/24 08:57:55;;;;;;;0.80;0.80;;;;;;;10.97;94.22;100431.28;5077046;28;20123;-64
2023/12/24 09:00:21;;;;;;;0.80;0.80;;;;;;;10.99;94.20;100431.84;5086127;28;20087;-64
2023/12/24 09:02:47;;;;;;;1.00;1.00;;;;;;;11.00;94.32;100435.47;5080173;28;20040;-62
2023/12/24 09:05:12;;;;;;;1.00;1.00;;;;;;;10.99;94.34;100445.72;5084397;28;20154;-63
2023/12/24 09:07:37;;;;;;;1.02;1.02;;;;;;;11.03;94.70;100451.59;5081309;28;20115;-64
2023/12/24 09:10:12;;;;;;;0.80;0.80;;;;;;;11.04;94.88;100454.13;5085696;28;20114;-63
2023/12/24 09:12:41;;;;;;;1.23;1.13;;;;;;;11.02;95.25;100461.03;5071933;28;20040;-63
2023/12/24 09:15:06;;;;;;;1.58;1.48;;;;;;;11.05;95.36;100460.50;5071634;28;20360;-64
2023/12/24 09:17:34;;;;;;;1.40;1.30;;;;;;;11.05;94.86;100469.69;5084610;28;20079;-64
2023/12/24 09:19:59;;;;;;;1.40;1.30;;;;;;;11.06;95.11;100478.84;5086480;28;20020;-64
2023/12/24 09:22:25;;;;;;;1.60;1.50;;;;;;;11.09;94.83;100464.44;5091029;28;20352;-64
2023/12/24 09:24:50;;;;;;;1.50;1.40;;;;;;;11.09;94.98;100455.25;5091271;28;20050;-63
2023/12/24 09:27:15;;;;;;;1.70;1.40;;;;;;;11.10;95.11;100449.44;5077128;28;20031;-64
2023/12/24 09:29:41;;;;;;;1.70;1.60;;;;;;;11.10;95.24;100448.59;5080722;28;20054;-63
2023/12/24 09:32:06;;;;;;;1.30;1.20;;;;;;;11.11;95.24;100448.31;5079074;28;20055;-66
2023/12/24 09:34:31;;;;;;;1.38;1.27;;;;;;;11.11;95.51;100442.78;5087733;28;20069;-60
2023/12/24 09:36:57;;;;;;;1.38;1.27;;;;;;;11.10;95.31;100434.72;5079175;28;20051;-59
2023/12/24 09:39:22;;;;;;;1.20;1.10;;;;;;;11.10;95.84;100429.16;5083224;28;20130;-63
2023/12/24 09:41:47;;;;;;;1.27;1.20;;;;;;;11.10;95.80;100441.09;5090289;28;20076;-60
2023/12/24 09:44:13;;;;;;;1.30;1.20;;;;;;;11.10;95.55;100435.53;5084265;28;20032;-61
2023/12/24 09:46:38;;;;;;;1.25;1.23;;;;;;;11.11;95.93;100437.22;5085135;28;20040;-64
2023/12/24 09:49:03;;;;;;;3.20;3.00;;;;;;;11.10;96.15;100435.53;5081983;28;20033;-64
2023/12/24 09:51:29;;;;;;;3.10;2.90;;;;;;;11.11;95.58;100436.38;5087213;28;20036;-64
2023/12/24 09:53:58;;;;;;;2.00;1.90;;;;;;;11.13;95.95;100445.28;5089806;28;20042;-64
2023/12/24 09:56:23;;;;;;;2.03;1.63;;;;;;;11.15;95.65;100446.69;5091529;28;20389;-64
2023/12/24 09:58:48;;;;;;;2.50;2.30;;;;;;;11.13;96.18;100437.78;5091204;28;20039;-63
2023/12/24 10:01:14;;;;;;;2.85;2.65;;;;;;;11.13;96.08;100435.03;5090876;28;20028;-63
2023/12/24 10:03:39;;;;;;;5.00;4.50;;;;;;;11.12;96.56;100438.91;5091287;28;20146;-64
2023/12/24 10:06:08;;;;;;;5.60;5.10;;;;;;;11.12;96.93;100447.25;5090420;28;20096;-64
2023/12/24 10:08:35;;;;;;;6.53;5.93;;;;;;;11.10;97.14;100449.44;5078332;28;20052;-64
2023/12/24 10:11:20;;;;;;;6.85;6.20;;;;;;;11.12;97.35;100443.59;5071118;28;20029;-63
2023/12/24 10:13:47;;;;;;;7.45;6.70;;;;;;;11.09;97.51;100436.66;5070374;28;20079;-64
2023/12/24 10:16:12;;;;;;;8.05;6.68;;;;;;;11.11;97.67;100441.94;5071005;28;20064;-64
2023/12/24 10:18:47;;;;;;;8.77;7.88;;;;;;;11.14;97.71;100438.63;5071171;28;20112;-64
2023/12/24 10:21:12;;;;;;;9.93;8.82;;;;;;;11.12;97.78;100438.91;5070886;28;20082;-64
2023/12/24 10:23:37;;;;;;;9.23;8.23;;;;;;;11.14;97.69;100436.69;5079082;28;20020;-64
2023/12/24 10:26:05;;;;;;;10.65;8.60;;;;;;;11.14;97.80;100450.56;5091565;28;20684;-64
2023/12/24 10:28:32;;;;;;;12.27;8.82;;;;;;;11.17;97.82;100449.22;5084448;28;20127;-64
2023/12/24 10:31:08;;;;;;;13.30;9.55;;;;;;;11.20;98.24;100448.66;5076082;28;20356;-64
2023/12/24 10:33:37;;;;;;;12.40;8.55;;;;;;;11.19;97.83;100439.50;5086118;28;20491;-64
2023/12/24 10:36:03;;;;;;;14.07;9.02;;;;;;;11.21;97.97;100419.78;5094206;28;20032;-63
2023/12/24 10:38:29;;;;;;;10.25;7.68;;;;;;;11.22;98.21;100435.34;5092475;28;20044;-64
2023/12/24 10:40:57;;;;;;;11.02;8.13;;;;;;;11.23;98.30;100398.13;5094813;28;20024;-64
2023/12/24 10:43:23;;;;;;;12.52;7.60;;;;;;;11.24;98.30;100419.25;5090841;28;20027;-64
2023/12/24 10:45:49;;;;;;;12.23;7.90;;;;;;;11.24;98.91;100408.16;5084351;28;20027;-64
2023/12/24 10:48:14;;;;;;;11.88;7.28;;;;;;;11.24;98.81;100391.47;5090533;28;20449;-64
2023/12/24 10:50:40;;;;;;;10.05;6.65;;;;;;;11.24;99.11;100400.66;5085621;28;20421;-64
2023/12/24 10:53:05;;;;;;;9.98;6.15;;;;;;;11.25;98.99;100395.94;5074444;28;20032;-63
2023/12/24 10:55:33;;;;;;;10.23;5.72;;;;;;;11.25;99.00;100410.66;5074709;28;20038;-64
2023/12/24 10:58:15;;;;;;;6.82;4.55;;;;;;;11.28;99.27;100389.84;5073885;28;20024;-64
2023/12/24 11:00:41;;;;;;;6.40;4.22;;;;;;;11.29;98.82;100388.72;5074356;28;20039;-64
2023/12/24 11:03:06;;;;;;;7.80;3.70;;;;;;;11.28;99.33;100393.44;5093511;28;20021;-64
2023/12/24 11:05:45;;;;;;;4.55;3.00;;;;;;;11.29;99.75;100394.28;5094244;28;20062;-64
2023/12/24 11:08:19;;;;;;;3.58;2.50;;;;;;;11.31;99.66;100394.84;5094217;28;20491;-63
2023/12/24 11:10:45;;;;;;;5.90;2.50;;;;;;;11.30;99.42;100395.94;5080073;28;20033;-62
2023/12/24 11:13:31;;;;;;;4.57;2.67;;;;;;;11.26;100.00;100381.75;5093182;28;20115;-61
2023/12/24 11:15:57;;;;;;;3.72;2.30;;;;;;;11.30;99.84;100373.72;5080843;28;20029;-63
2023/12/24 11:18:46;;;;;;;4.25;2.00;;;;;;;11.33;99.68;100378.75;5077669;28;20475;-63